sensor_id;sensor_type;location;lat;lon;timestamp;pressure;altitude;pressure_sealevel;temperature;humidity
56825;BME280;42705;50.326;18.772;2022-07-06T00:02:38;98636.31;;;18.52;71.00
56825;BME280;42705;50.326;18.772;2022-07-06T00:07:59;98638.33;;;18.50;70.98
56825;BME280;42705;50.326;18.772;2022-07-06T00:13:20;98633.98;;;18.42;70.91
56825;BME280;42705;50.326;18.772;2022-07-06T00:18:40;98634.30;;;18.43;71.12
56825;BME280;42705;50.326;18.772;2022-07-06T00:24:02;98639.77;;;18.42;71.07
56825;BME280;42705;50.326;18.772;2022-07-06T00:29:23;98648.33;;;18.33;70.91
56825;BME280;42705;50.326;18.772;2022-07-06T00:34:44;98643.23;;;18.31;71.11
56825;BME280;42705;50.326;18.772;2022-07-06T00:40:07;98643.23;;;18.31;71.11
56825;BME280;42705;50.326;18.772;2022-07-06T00:45:28;98648.42;;;18.40;71.02
56825;BME280;42705;50.326;18.772;2022-07-06T00:50:49;98646.61;;;18.40;70.92
56825;BME280;42705;50.326;18.772;2022-07-06T00:56:10;98639.52;;;18.36;70.83
56825;BME280;42705;50.326;18.772;2022-07-06T01:01:31;98636.34;;;18.26;70.77
56825;BME280;42705;50.326;18.772;2022-07-06T01:06:52;98632.42;;;18.22;70.93
56825;BME280;42705;50.326;18.772;2022-07-06T01:12:14;98631.78;;;18.20;70.99
56825;BME280;42705;50.326;18.772;2022-07-06T01:17:35;98626.16;;;18.19;70.93
56825;BME280;42705;50.326;18.772;2022-07-06T01:22:59;98620.40;;;18.15;70.93
56825;BME280;42705;50.326;18.772;2022-07-06T01:28:20;98627.72;;;18.13;70.92
56825;BME280;42705;50.326;18.772;2022-07-06T01:33:42;98630.22;;;18.11;70.75
56825;BME280;42705;50.326;18.772;2022-07-06T01:39:05;98624.91;;;18.11;70.76
56825;BME280;42705;50.326;18.772;2022-07-06T01:44:25;98619.55;;;18.04;70.73
56825;BME280;42705;50.326;18.772;2022-07-06T01:49:47;98616.27;;;18.02;70.72
56825;BME280;42705;50.326;18.772;2022-07-06T01:55:09;98618.39;;;18.02;70.74
56825;BME280;42705;50.326;18.772;2022-07-06T02:00:32;98619.05;;;18.00;70.73
56825;BME280;42705;50.326;18.772;2022-07-06T02:05:53;98619.96;;;17.92;70.59
56825;BME280;42705;50.326;18.772;2022-07-06T02:11:14;98614.33;;;17.81;70.67
56825;BME280;42705;50.326;18.772;2022-07-06T02:16:37;98614.33;;;17.81;70.67
56825;BME280;42705;50.326;18.772;2022-07-06T02:21:58;98615.55;;;17.74;70.58
56825;BME280;42705;50.326;18.772;2022-07-06T02:27:18;98607.06;;;17.63;70.61
56825;BME280;42705;50.326;18.772;2022-07-06T02:32:40;98609.60;;;17.57;70.75
56825;BME280;42705;50.326;18.772;2022-07-06T02:38:02;98604.80;;;17.56;70.78
56825;BME280;42705;50.326;18.772;2022-07-06T02:43:23;98612.05;;;17.58;70.83
56825;BME280;42705;50.326;18.772;2022-07-06T02:48:44;98603.30;;;17.58;70.77
56825;BME280;42705;50.326;18.772;2022-07-06T02:54:05;98607.64;;;17.55;70.66
56825;BME280;42705;50.326;18.772;2022-07-06T02:59:26;98611.19;;;17.47;70.68
56825;BME280;42705;50.326;18.772;2022-07-06T03:04:47;98622.45;;;17.45;70.76
56825;BME280;42705;50.326;18.772;2022-07-06T03:10:09;98633.70;;;17.47;70.69
56825;BME280;42705;50.326;18.772;2022-07-06T03:15:30;98636.77;;;17.55;70.65
56825;BME280;42705;50.326;18.772;2022-07-06T03:20:53;98643.84;;;17.58;70.51
56825;BME280;42705;50.326;18.772;2022-07-06T03:26:15;98646.00;;;17.59;70.16
56825;BME280;42705;50.326;18.772;2022-07-06T03:31:36;98653.63;;;17.39;69.69
56825;BME280;42705;50.326;18.772;2022-07-06T03:36:58;98649.93;;;17.05;69.77
56825;BME280;42705;50.326;18.772;2022-07-06T03:42:20;98653.65;;;16.92;70.25
56825;BME280;42705;50.326;18.772;2022-07-06T03:47:41;98671.17;;;16.93;70.57
56825;BME280;42705;50.326;18.772;2022-07-06T03:53:03;98665.84;;;16.97;70.85
56825;BME280;42705;50.326;18.772;2022-07-06T03:58:24;98678.08;;;17.02;70.85
56825;BME280;42705;50.326;18.772;2022-07-06T04:03:45;98677.23;;;17.06;70.92
56825;BME280;42705;50.326;18.772;2022-07-06T04:09:07;98676.40;;;17.05;70.84
56825;BME280;42705;50.326;18.772;2022-07-06T04:14:28;98689.02;;;16.99;70.67
56825;BME280;42705;50.326;18.772;2022-07-06T04:19:50;98684.17;;;17.03;70.98
56825;BME280;42705;50.326;18.772;2022-07-06T04:25:11;98675.52;;;17.13;70.99
56825;BME280;42705;50.326;18.772;2022-07-06T04:30:32;98684.91;;;17.16;70.69
56825;BME280;42705;50.326;18.772;2022-07-06T04:35:54;98696.56;;;17.30;70.93
56825;BME280;42705;50.326;18.772;2022-07-06T04:41:17;98698.56;;;17.28;70.66
56825;BME280;42705;50.326;18.772;2022-07-06T04:46:38;98695.55;;;17.31;70.69
56825;BME280;42705;50.326;18.772;2022-07-06T04:51:59;98690.47;;;17.48;70.77
56825;BME280;42705;50.326;18.772;2022-07-06T04:57:22;98691.46;;;17.67;70.71
56825;BME280;42705;50.326;18.772;2022-07-06T05:02:43;98688.36;;;17.78;70.41
56825;BME280;42705;50.326;18.772;2022-07-06T05:08:04;98693.31;;;17.96;70.25
56825;BME280;42705;50.326;18.772;2022-07-06T05:13:26;98685.66;;;18.01;70.07
56825;BME280;42705;50.326;18.772;2022-07-06T05:18:47;98683.23;;;18.11;69.90
56825;BME280;42705;50.326;18.772;2022-07-06T05:24:09;98693.03;;;18.25;69.65
56825;BME280;42705;50.326;18.772;2022-07-06T05:29:31;98699.65;;;18.40;69.54
56825;BME280;42705;50.326;18.772;2022-07-06T05:34:51;98705.73;;;18.56;69.24
56825;BME280;42705;50.326;18.772;2022-07-06T05:40:13;98712.98;;;18.73;68.86
56825;BME280;42705;50.326;18.772;2022-07-06T05:45:34;98727.80;;;18.93;68.60
56825;BME280;42705;50.326;18.772;2022-07-06T05:50:56;98725.00;;;18.90;68.13
56825;BME280;42705;50.326;18.772;2022-07-06T05:56:17;98734.09;;;18.81;67.74
56825;BME280;42705;50.326;18.772;2022-07-06T06:01:40;98745.45;;;18.75;67.67
56825;BME280;42705;50.326;18.772;2022-07-06T06:07:03;98767.11;;;18.68;67.56
56825;BME280;42705;50.326;18.772;2022-07-06T06:12:24;98779.11;;;18.33;67.49
56825;BME280;42705;50.326;18.772;2022-07-06T06:17:45;98774.61;;;18.04;67.84
56825;BME280;42705;50.326;18.772;2022-07-06T06:23:06;98771.02;;;17.92;68.56
56825;BME280;42705;50.326;18.772;2022-07-06T06:28:27;98783.22;;;17.98;68.77
56825;BME280;42705;50.326;18.772;2022-07-06T06:33:48;98779.45;;;17.96;68.79
56825;BME280;42705;50.326;18.772;2022-07-06T06:39:09;98785.55;;;17.97;68.88
56825;BME280;42705;50.326;18.772;2022-07-06T06:44:30;98775.67;;;17.90;69.09
56825;BME280;42705;50.326;18.772;2022-07-06T06:49:51;98791.94;;;17.87;69.06
56825;BME280;42705;50.326;18.772;2022-07-06T06:55:12;98791.17;;;17.98;69.36
56825;BME280;42705;50.326;18.772;2022-07-06T07:00:33;98811.93;;;17.94;68.75
56825;BME280;42705;50.326;18.772;2022-07-06T07:05:54;98812.33;;;17.87;68.65
56825;BME280;42705;50.326;18.772;2022-07-06T07:11:14;98818.47;;;17.83;68.46
56825;BME280;42705;50.326;18.772;2022-07-06T07:16:35;98806.98;;;17.91;68.50
56825;BME280;42705;50.326;18.772;2022-07-06T07:21:56;98805.63;;;17.95;68.17
56825;BME280;42705;50.326;18.772;2022-07-06T07:27:17;98805.09;;;18.04;67.82
56825;BME280;42705;50.326;18.772;2022-07-06T07:32:38;98816.73;;;18.14;67.75
56825;BME280;42705;50.326;18.772;2022-07-06T07:38:00;98818.97;;;18.25;67.54
56825;BME280;42705;50.326;18.772;2022-07-06T07:43:22;98812.63;;;18.45;67.05
56825;BME280;42705;50.326;18.772;2022-07-06T07:48:42;98831.89;;;18.58;66.60
56825;BME280;42705;50.326;18.772;2022-07-06T07:54:04;98815.14;;;18.73;66.40
56825;BME280;42705;50.326;18.772;2022-07-06T07:59:25;98812.90;;;18.80;65.88
56825;BME280;42705;50.326;18.772;2022-07-06T08:04:47;98823.89;;;18.77;65.57
56825;BME280;42705;50.326;18.772;2022-07-06T08:10:09;98830.27;;;18.68;65.21
56825;BME280;42705;50.326;18.772;2022-07-06T08:15:30;98813.77;;;18.62;65.13
56825;BME280;42705;50.326;18.772;2022-07-06T08:20:51;98807.65;;;18.61;65.02
56825;BME280;42705;50.326;18.772;2022-07-06T08:26:13;98804.05;;;18.58;64.73
56825;BME280;42705;50.326;18.772;2022-07-06T08:31:34;98796.08;;;18.58;64.84
56825;BME280;42705;50.326;18.772;2022-07-06T08:36:55;98782.94;;;18.61;64.41
56825;BME280;42705;50.326;18.772;2022-07-06T08:42:16;98794.77;;;18.69;64.29
56825;BME280;42705;50.326;18.772;2022-07-06T08:47:37;98794.38;;;18.76;64.16
56825;BME280;42705;50.326;18.772;2022-07-06T08:52:59;98800.70;;;18.86;64.06
56825;BME280;42705;50.326;18.772;2022-07-06T08:58:23;98791.50;;;18.93;63.42
56825;BME280;42705;50.326;18.772;2022-07-06T09:03:48;98801.92;;;18.99;63.16
56825;BME280;42705;50.326;18.772;2022-07-06T09:09:10;98797.05;;;19.02;62.44
56825;BME280;42705;50.326;18.772;2022-07-06T09:14:33;98793.64;;;19.08;61.64
56825;BME280;42705;50.326;18.772;2022-07-06T09:19:55;98787.81;;;19.35;61.48
56825;BME280;42705;50.326;18.772;2022-07-06T09:25:16;98789.58;;;19.71;61.41
56825;BME280;42705;50.326;18.772;2022-07-06T09:30:37;98784.72;;;20.03;61.02
56825;BME280;42705;50.326;18.772;2022-07-06T09:36:00;98784.81;;;20.28;60.32
56825;BME280;42705;50.326;18.772;2022-07-06T09:41:31;98786.21;;;20.41;59.53
56825;BME280;42705;50.326;18.772;2022-07-06T09:46:55;98793.55;;;20.57;59.06
56825;BME280;42705;50.326;18.772;2022-07-06T09:52:17;98776.02;;;20.69;58.75
56825;BME280;42705;50.326;18.772;2022-07-06T09:57:39;98772.34;;;20.77;58.68
56825;BME280;42705;50.326;18.772;2022-07-06T10:03:00;98778.48;;;20.88;58.46
56825;BME280;42705;50.326;18.772;2022-07-06T10:08:22;98776.22;;;20.85;57.72
56825;BME280;42705;50.326;18.772;2022-07-06T10:13:45;98795.66;;;20.86;57.29
56825;BME280;42705;50.326;18.772;2022-07-06T10:19:09;98794.15;;;20.87;57.04
56825;BME280;42705;50.326;18.772;2022-07-06T10:24:30;98793.53;;;20.92;57.15
56825;BME280;42705;50.326;18.772;2022-07-06T10:29:53;98790.06;;;20.91;57.44
56825;BME280;42705;50.326;18.772;2022-07-06T10:35:14;98792.23;;;20.99;57.38
56825;BME280;42705;50.326;18.772;2022-07-06T10:40:39;98795.08;;;20.90;57.31
56825;BME280;42705;50.326;18.772;2022-07-06T10:46:19;98787.00;;;21.01;57.01
56825;BME280;42705;50.326;18.772;2022-07-06T10:51:40;98794.22;;;21.14;56.69
56825;BME280;42705;50.326;18.772;2022-07-06T10:57:08;98796.91;;;21.21;56.15
56825;BME280;42705;50.326;18.772;2022-07-06T11:02:37;98792.41;;;21.21;56.07
56825;BME280;42705;50.326;18.772;2022-07-06T11:08:01;98802.07;;;21.36;55.98
56825;BME280;42705;50.326;18.772;2022-07-06T11:13:27;98805.06;;;21.44;55.85
56825;BME280;42705;50.326;18.772;2022-07-06T11:19:00;98802.77;;;21.65;55.54
56825;BME280;42705;50.326;18.772;2022-07-06T11:24:25;98811.14;;;21.62;55.19
56825;BME280;42705;50.326;18.772;2022-07-06T11:29:47;98814.28;;;21.54;55.11
56825;BME280;42705;50.326;18.772;2022-07-06T11:35:08;98807.91;;;21.42;55.14
56825;BME280;42705;50.326;18.772;2022-07-06T11:40:29;98808.34;;;21.52;55.20
56825;BME280;42705;50.326;18.772;2022-07-06T11:45:50;98806.23;;;21.65;54.99
56825;BME280;42705;50.326;18.772;2022-07-06T11:51:11;98803.98;;;21.82;54.74
56825;BME280;42705;50.326;18.772;2022-07-06T11:56:31;98810.95;;;21.97;54.02
56825;BME280;42705;50.326;18.772;2022-07-06T12:02:10;98806.66;;;22.09;53.91
56825;BME280;42705;50.326;18.772;2022-07-06T12:07:30;98803.66;;;22.29;53.82
56825;BME280;42705;50.326;18.772;2022-07-06T12:12:51;98802.19;;;22.53;53.16
56825;BME280;42705;50.326;18.772;2022-07-06T12:18:12;98799.82;;;22.83;52.07
56825;BME280;42705;50.326;18.772;2022-07-06T12:23:41;98799.82;;;22.83;52.07
56825;BME280;42705;50.326;18.772;2022-07-06T12:29:05;98798.17;;;23.12;51.38
56825;BME280;42705;50.326;18.772;2022-07-06T12:34:29;98786.83;;;23.17;50.69
56825;BME280;42705;50.326;18.772;2022-07-06T12:39:52;98799.55;;;22.98;50.13
56825;BME280;42705;50.326;18.772;2022-07-06T12:45:13;98799.45;;;22.73;49.79
56825;BME280;42705;50.326;18.772;2022-07-06T12:50:36;98799.11;;;22.49;50.00
56825;BME280;42705;50.326;18.772;2022-07-06T12:56:12;98789.47;;;22.41;50.31
56825;BME280;42705;50.326;18.772;2022-07-06T13:01:31;98786.38;;;22.51;50.28
56825;BME280;42705;50.326;18.772;2022-07-06T13:06:53;98785.56;;;22.80;50.13
56825;BME280;42705;50.326;18.772;2022-07-06T13:12:13;98767.91;;;23.02;49.64
56825;BME280;42705;50.326;18.772;2022-07-06T13:17:35;98779.07;;;23.08;49.23
56825;BME280;42705;50.326;18.772;2022-07-06T13:22:57;98764.78;;;23.44;49.07
56825;BME280;42705;50.326;18.772;2022-07-06T13:28:18;98762.83;;;23.83;48.51
56825;BME280;42705;50.326;18.772;2022-07-06T13:33:39;98769.41;;;24.32;47.90
56825;BME280;42705;50.326;18.772;2022-07-06T13:39:00;98759.31;;;25.98;46.10
56825;BME280;42705;50.326;18.772;2022-07-06T13:44:22;98743.92;;;28.36;43.20
56825;BME280;42705;50.326;18.772;2022-07-06T13:49:42;98732.64;;;31.01;40.35
56825;BME280;42705;50.326;18.772;2022-07-06T13:55:06;98733.66;;;32.22;37.42
56825;BME280;42705;50.326;18.772;2022-07-06T14:00:29;98732.47;;;34.01;34.88
56825;BME280;42705;50.326;18.772;2022-07-06T14:05:50;98715.77;;;34.59;33.11
56825;BME280;42705;50.326;18.772;2022-07-06T14:11:13;98724.82;;;35.75;30.98
56825;BME280;42705;50.326;18.772;2022-07-06T14:16:35;98719.56;;;36.10;29.85
56825;BME280;42705;50.326;18.772;2022-07-06T14:21:55;98708.48;;;36.45;28.75
56825;BME280;42705;50.326;18.772;2022-07-06T14:27:17;98704.48;;;36.91;27.68
56825;BME280;42705;50.326;18.772;2022-07-06T14:32:38;98708.92;;;38.07;24.92
56825;BME280;42705;50.326;18.772;2022-07-06T14:38:00;98708.92;;;38.07;24.92
56825;BME280;42705;50.326;18.772;2022-07-06T14:43:22;98692.63;;;38.77;24.57
56825;BME280;42705;50.326;18.772;2022-07-06T14:48:43;98688.47;;;37.55;24.83
56825;BME280;42705;50.326;18.772;2022-07-06T14:54:04;98717.91;;;35.17;24.74
56825;BME280;42705;50.326;18.772;2022-07-06T14:59:25;98735.15;;;31.75;26.34
56825;BME280;42705;50.326;18.772;2022-07-06T15:04:45;98752.69;;;29.21;28.65
56825;BME280;42705;50.326;18.772;2022-07-06T15:10:07;98766.50;;;27.59;30.29
56825;BME280;42705;50.326;18.772;2022-07-06T15:15:30;98782.44;;;26.50;31.78
56825;BME280;42705;50.326;18.772;2022-07-06T15:20:51;98780.61;;;25.57;33.54
56825;BME280;42705;50.326;18.772;2022-07-06T15:26:12;98772.55;;;25.15;34.55
56825;BME280;42705;50.326;18.772;2022-07-06T15:31:33;98757.94;;;25.20;35.26
56825;BME280;42705;50.326;18.772;2022-07-06T15:36:54;98757.55;;;25.05;36.01
56825;BME280;42705;50.326;18.772;2022-07-06T15:42:16;98752.00;;;24.88;37.05
56825;BME280;42705;50.326;18.772;2022-07-06T15:47:36;98748.23;;;25.50;37.21
56825;BME280;42705;50.326;18.772;2022-07-06T15:52:59;98741.36;;;26.64;36.90
56825;BME280;42705;50.326;18.772;2022-07-06T15:58:20;98739.70;;;27.50;35.90
56825;BME280;42705;50.326;18.772;2022-07-06T16:03:41;98744.64;;;27.72;35.36
56825;BME280;42705;50.326;18.772;2022-07-06T16:09:02;98742.80;;;27.58;35.79
56825;BME280;42705;50.326;18.772;2022-07-06T16:14:22;98740.63;;;27.92;35.56
56825;BME280;42705;50.326;18.772;2022-07-06T16:19:43;98730.02;;;28.67;35.09
56825;BME280;42705;50.326;18.772;2022-07-06T16:25:05;98730.94;;;29.00;34.84
56825;BME280;42705;50.326;18.772;2022-07-06T16:30:26;98728.39;;;29.88;34.10
56825;BME280;42705;50.326;18.772;2022-07-06T16:35:47;98740.34;;;29.98;33.74
56825;BME280;42705;50.326;18.772;2022-07-06T16:41:09;98734.09;;;30.43;32.94
56825;BME280;42705;50.326;18.772;2022-07-06T16:46:30;98743.02;;;30.43;31.75
56825;BME280;42705;50.326;18.772;2022-07-06T16:51:50;98728.47;;;29.99;30.99
56825;BME280;42705;50.326;18.772;2022-07-06T16:57:11;98735.16;;;29.51;30.84
56825;BME280;42705;50.326;18.772;2022-07-06T17:02:32;98737.83;;;28.91;30.81
56825;BME280;42705;50.326;18.772;2022-07-06T17:07:53;98736.56;;;28.51;31.21
56825;BME280;42705;50.326;18.772;2022-07-06T17:13:14;98737.13;;;28.31;30.96
56825;BME280;42705;50.326;18.772;2022-07-06T17:18:35;98732.62;;;28.14;31.07
56825;BME280;42705;50.326;18.772;2022-07-06T17:23:56;98729.75;;;27.84;31.21
56825;BME280;42705;50.326;18.772;2022-07-06T17:29:17;98730.95;;;27.74;31.23
56825;BME280;42705;50.326;18.772;2022-07-06T17:34:38;98731.16;;;27.70;31.45
56825;BME280;42705;50.326;18.772;2022-07-06T17:39:59;98725.39;;;27.64;31.71
56825;BME280;42705;50.326;18.772;2022-07-06T17:45:21;98727.49;;;27.59;31.89
56825;BME280;42705;50.326;18.772;2022-07-06T17:50:42;98732.94;;;27.01;32.33
56825;BME280;42705;50.326;18.772;2022-07-06T17:56:03;98732.20;;;26.77;32.84
56825;BME280;42705;50.326;18.772;2022-07-06T18:01:25;98737.22;;;26.44;33.23
56825;BME280;42705;50.326;18.772;2022-07-06T18:06:47;98734.15;;;25.90;33.92
56825;BME280;42705;50.326;18.772;2022-07-06T18:12:09;98740.67;;;25.37;34.64
56825;BME280;42705;50.326;18.772;2022-07-06T18:17:30;98744.69;;;24.95;35.47
56825;BME280;42705;50.326;18.772;2022-07-06T18:22:51;98743.81;;;24.64;35.99
56825;BME280;42705;50.326;18.772;2022-07-06T18:28:12;98753.73;;;24.26;36.70
56825;BME280;42705;50.326;18.772;2022-07-06T18:33:35;98762.43;;;23.96;37.14
56825;BME280;42705;50.326;18.772;2022-07-06T18:38:57;98754.84;;;23.67;37.76
56825;BME280;42705;50.326;18.772;2022-07-06T18:44:18;98754.33;;;23.43;38.50
56825;BME280;42705;50.326;18.772;2022-07-06T18:49:39;98755.67;;;23.20;39.30
56825;BME280;42705;50.326;18.772;2022-07-06T18:55:01;98761.55;;;22.96;39.86
56825;BME280;42705;50.326;18.772;2022-07-06T19:00:25;98758.58;;;22.73;40.47
56825;BME280;42705;50.326;18.772;2022-07-06T19:05:46;98768.72;;;22.50;40.83
56825;BME280;42705;50.326;18.772;2022-07-06T19:11:07;98773.89;;;22.32;41.42
56825;BME280;42705;50.326;18.772;2022-07-06T19:16:29;98776.90;;;22.12;41.72
56825;BME280;42705;50.326;18.772;2022-07-06T19:21:49;98774.45;;;21.97;42.27
56825;BME280;42705;50.326;18.772;2022-07-06T19:27:10;98777.63;;;21.83;42.76
56825;BME280;42705;50.326;18.772;2022-07-06T19:32:32;98780.92;;;21.72;43.08
56825;BME280;42705;50.326;18.772;2022-07-06T19:37:54;98789.81;;;21.62;43.49
56825;BME280;42705;50.326;18.772;2022-07-06T19:43:15;98802.29;;;21.54;44.02
56825;BME280;42705;50.326;18.772;2022-07-06T19:48:36;98805.98;;;21.47;44.31
56825;BME280;42705;50.326;18.772;2022-07-06T19:53:59;98808.14;;;21.40;44.89
56825;BME280;42705;50.326;18.772;2022-07-06T19:59:20;98817.94;;;21.33;45.18
56825;BME280;42705;50.326;18.772;2022-07-06T20:04:41;98815.77;;;21.26;45.30
56825;BME280;42705;50.326;18.772;2022-07-06T20:10:03;98817.59;;;21.19;45.44
56825;BME280;42705;50.326;18.772;2022-07-06T20:15:24;98814.41;;;21.13;45.80
56825;BME280;42705;50.326;18.772;2022-07-06T20:20:45;98818.38;;;21.06;46.02
56825;BME280;42705;50.326;18.772;2022-07-06T20:26:06;98827.66;;;20.99;46.94
56825;BME280;42705;50.326;18.772;2022-07-06T20:31:27;98815.05;;;20.90;46.86
56825;BME280;42705;50.326;18.772;2022-07-06T20:36:48;98807.73;;;20.81;47.16
56825;BME280;42705;50.326;18.772;2022-07-06T20:42:09;98808.89;;;20.72;47.36
56825;BME280;42705;50.326;18.772;2022-07-06T20:47:30;98818.16;;;20.65;47.60
56825;BME280;42705;50.326;18.772;2022-07-06T20:52:50;98814.34;;;20.57;47.28
56825;BME280;42705;50.326;18.772;2022-07-06T20:58:12;98823.82;;;20.49;46.95
56825;BME280;42705;50.326;18.772;2022-07-06T21:03:33;98817.69;;;20.37;46.96
56825;BME280;42705;50.326;18.772;2022-07-06T21:08:54;98817.05;;;20.29;47.59
56825;BME280;42705;50.326;18.772;2022-07-06T21:14:15;98815.73;;;20.18;47.34
56825;BME280;42705;50.326;18.772;2022-07-06T21:19:36;98806.94;;;20.06;47.60
56825;BME280;42705;50.326;18.772;2022-07-06T21:24:57;98804.73;;;19.99;48.00
56825;BME280;42705;50.326;18.772;2022-07-06T21:30:18;98810.20;;;19.91;48.48
56825;BME280;42705;50.326;18.772;2022-07-06T21:35:39;98806.12;;;19.84;49.08
56825;BME280;42705;50.326;18.772;2022-07-06T21:41:00;98807.91;;;19.77;49.54
56825;BME280;42705;50.326;18.772;2022-07-06T21:46:21;98806.53;;;19.70;49.83
56825;BME280;42705;50.326;18.772;2022-07-06T21:51:41;98809.44;;;19.64;50.13
56825;BME280;42705;50.326;18.772;2022-07-06T21:57:03;98813.28;;;19.62;50.73
56825;BME280;42705;50.326;18.772;2022-07-06T22:02:24;98809.37;;;19.58;51.21
56825;BME280;42705;50.326;18.772;2022-07-06T22:07:45;98812.92;;;19.54;51.70
56825;BME280;42705;50.326;18.772;2022-07-06T22:13:06;98819.25;;;19.53;51.88
56825;BME280;42705;50.326;18.772;2022-07-06T22:18:27;98818.09;;;19.51;52.12
56825;BME280;42705;50.326;18.772;2022-07-06T22:23:49;98812.53;;;19.46;52.09
56825;BME280;42705;50.326;18.772;2022-07-06T22:29:10;98814.04;;;19.45;52.45
56825;BME280;42705;50.326;18.772;2022-07-06T22:34:31;98808.79;;;19.41;52.55
56825;BME280;42705;50.326;18.772;2022-07-06T22:39:52;98803.05;;;19.37;52.76
56825;BME280;42705;50.326;18.772;2022-07-06T22:45:15;98813.53;;;19.34;53.24
56825;BME280;42705;50.326;18.772;2022-07-06T22:50:36;98811.43;;;19.30;53.25
56825;BME280;42705;50.326;18.772;2022-07-06T22:55:57;98801.08;;;19.24;53.19
56825;BME280;42705;50.326;18.772;2022-07-06T23:01:19;98802.95;;;19.19;52.89
56825;BME280;42705;50.326;18.772;2022-07-06T23:06:41;98802.06;;;19.12;52.38
56825;BME280;42705;50.326;18.772;2022-07-06T23:12:03;98807.44;;;19.08;52.26
56825;BME280;42705;50.326;18.772;2022-07-06T23:17:25;98804.37;;;19.00;52.55
56825;BME280;42705;50.326;18.772;2022-07-06T23:22:46;98807.48;;;18.89;52.90
56825;BME280;42705;50.326;18.772;2022-07-06T23:28:08;98815.14;;;18.73;53.63
56825;BME280;42705;50.326;18.772;2022-07-06T23:33:28;98816.98;;;18.57;54.36
56825;BME280;42705;50.326;18.772;2022-07-06T23:38:49;98804.67;;;18.45;54.81
56825;BME280;42705;50.326;18.772;2022-07-06T23:44:12;98806.64;;;18.47;55.33
56825;BME280;42705;50.326;18.772;2022-07-06T23:49:33;98814.23;;;18.50;55.40
56825;BME280;42705;50.326;18.772;2022-07-06T23:54:54;98816.05;;;18.50;55.62
